Time;durP1;ratioP1;P1;durP2;ratioP2;P2;SDS_P1;SDS_P2;PMS_P1;PMS_P2;Temp;Humidity;BMP_temperature;BMP_pressure;BME280_temperature;BME280_humidity;BME280_pressure;Samples;Min_cycle;Max_cycle;Signal;HPM_P1;HPM_P2
2022/12/24 00:02:13;;;;;;;;;;;17.00;52.20;;;;;;5092802;28;19926;-65
2022/12/24 00:04:38;;;;;;;;;;;17.00;52.30;;;;;;5074642;28;19920;-66
2022/12/24 00:07:04;;;;;;;;;;;17.00;52.30;;;;;;5074891;28;19920;-74
2022/12/24 00:09:29;;;;;;;;;;;17.00;52.40;;;;;;5092827;28;20280;-65
2022/12/24 00:11:55;;;;;;;;;;;17.00;52.40;;;;;;5092681;28;20375;-65
2022/12/24 00:14:21;;;;;;;;;;;17.00;52.40;;;;;;5074646;28;20419;-66
2022/12/24 00:16:46;;;;;;;;;;;17.00;52.50;;;;;;5092674;28;19965;-66
2022/12/24 00:19:12;;;;;;;;;;;17.00;52.50;;;;;;5074771;28;19920;-66
2022/12/24 00:21:37;;;;;;;;;;;17.00;52.50;;;;;;5074524;28;19920;-74
2022/12/24 00:24:04;;;;;;;;;;;17.00;52.50;;;;;;5092489;28;19927;-74
2022/12/24 00:26:30;;;;;;;;;;;17.00;52.60;;;;;;5074796;28;19920;-66
2022/12/24 00:28:56;;;;;;;;;;;16.90;52.60;;;;;;5074366;28;19927;-66
2022/12/24 00:31:22;;;;;;;;;;;16.90;52.50;;;;;;5074665;28;19920;-65
2022/12/24 00:33:48;;;;;;;;;;;17.00;52.70;;;;;;5074572;28;19920;-66
2022/12/24 00:36:14;;;;;;;;;;;16.90;52.70;;;;;;5070691;28;19975;-66
2022/12/24 00:38:39;;;;;;;;;;;16.90;52.70;;;;;;5070892;28;19924;-66
2022/12/24 00:41:22;;;;;;;;;;;16.90;52.70;;;;;;5071212;28;20020;-66
2022/12/24 00:46:33;;;;;;;;;;;16.90;52.80;;;;;;5089873;28;19913;-64
2022/12/24 00:48:59;;;;;;;;;;;16.90;52.80;;;;;;5088563;28;20394;-71
2022/12/24 00:51:25;;;;;;;;;;;16.90;52.80;;;;;;5088858;28;19924;-63
2022/12/24 00:53:51;;;;;;;;;;;16.80;52.80;;;;;;5088873;28;19927;-63
2022/12/24 00:56:16;;;;;;;;;;;16.80;52.90;;;;;;5088561;28;19921;-63
2022/12/24 00:58:42;;;;;;;;;;;16.80;52.90;;;;;;5089790;28;19939;-64
2022/12/24 01:01:07;;;;;;;;;;;16.80;52.90;;;;;;5088667;28;19921;-70
2022/12/24 01:03:34;;;;;;;;;;;16.80;52.90;;;;;;5071730;28;20420;-63
2022/12/24 01:08:42;;;;;;;;;;;16.80;53.00;;;;;;5127579;27;1864468;-64
2022/12/24 01:11:09;;;;;;;;;;;16.80;53.10;;;;;;5174463;27;20005;-64
2022/12/24 01:13:35;;;;;;;;;;;16.80;53.10;;;;;;5174554;27;20007;-71
2022/12/24 01:16:01;;;;;;;;;;;16.80;53.10;;;;;;5174437;27;20389;-64
2022/12/24 01:18:26;;;;;;;;;;;16.70;53.10;;;;;;5175603;27;19919;-64
2022/12/24 01:21:00;;;;;;;;;;;16.70;53.10;;;;;;5153403;27;20414;-73
2022/12/24 01:23:26;;;;;;;;;;;16.70;53.10;;;;;;5153269;27;19923;-64
2022/12/24 01:25:52;;;;;;;;;;;16.70;53.20;;;;;;5171847;27;20382;-72
2022/12/24 01:28:18;;;;;;;;;;;16.70;53.20;;;;;;5171790;27;19930;-65
2022/12/24 01:30:44;;;;;;;;;;;16.70;53.30;;;;;;5171675;27;20430;-64
2022/12/24 01:33:09;;;;;;;;;;;16.70;53.30;;;;;;5172052;27;20017;-72
2022/12/24 01:35:38;;;;;;;;;;;16.70;53.30;;;;;;5152772;27;20412;-73
2022/12/24 01:38:03;;;;;;;;;;;16.70;53.30;;;;;;5171712;27;19925;-64
2022/12/24 01:43:23;;;;;;;;;;;16.70;53.40;;;;;;5171195;27;20291;-64
2022/12/24 01:45:50;;;;;;;;;;;16.70;53.40;;;;;;5171686;27;19919;-64
2022/12/24 01:48:36;;;;;;;;;;;16.60;53.40;;;;;;5171496;27;19926;-64
2022/12/24 01:51:21;;;;;;;;;;;16.70;53.50;;;;;;5171242;27;19958;-64
2022/12/24 01:53:48;;;;;;;;;;;16.60;53.50;;;;;;5170581;27;19919;-64
2022/12/24 01:56:14;;;;;;;;;;;16.60;53.50;;;;;;5152610;27;20430;-64
2022/12/24 01:58:42;;;;;;;;;;;16.60;53.50;;;;;;5171379;27;19923;-72
2022/12/24 02:01:08;;;;;;;;;;;16.60;53.50;;;;;;5151788;27;19921;-64
2022/12/24 02:03:33;;;;;;;;;;;16.60;53.50;;;;;;5152457;27;19926;-65
2022/12/24 02:05:59;;;;;;;;;;;16.60;53.50;;;;;;5152639;27;19919;-64
2022/12/24 02:08:38;;;;;;;;;;;16.60;53.50;;;;;;5170009;27;19962;-64
2022/12/24 02:11:20;;;;;;;;;;;16.50;53.60;;;;;;5152342;27;19983;-64
2022/12/24 02:13:49;;;;;;;;;;;16.60;53.70;;;;;;5170579;27;19958;-72
2022/12/24 02:16:28;;;;;;;;;;;16.60;53.60;;;;;;5170797;27;20287;-64
2022/12/24 02:24:22;;;;;;;;;;;16.50;53.60;;;;;;5089687;28;19919;-72
2022/12/24 02:26:59;;;;;;;;;;;16.60;53.70;;;;;;5090026;28;19928;-64
2022/12/24 02:32:11;;;;;;;;;;;16.50;53.70;;;;;;5089628;28;19912;-65
2022/12/24 02:34:43;;;;;;;;;;;16.50;53.70;;;;;;5088151;28;20413;-64
2022/12/24 02:37:26;;;;;;;;;;;16.50;53.70;;;;;;5088715;28;20000;-64
2022/12/24 02:42:39;;;;;;;;;;;16.50;53.80;;;;;;5163646;27;20022;-64
2022/12/24 02:45:10;;;;;;;;;;;16.50;53.70;;;;;;5149825;27;19919;-63
2022/12/24 02:47:36;;;;;;;;;;;16.50;53.80;;;;;;5151556;27;20320;-64
2022/12/24 02:50:03;;;;;;;;;;;16.50;53.80;;;;;;5150000;27;19969;-71
2022/12/24 02:52:38;;;;;;;;;;;16.50;53.80;;;;;;5149583;27;19926;-63
2022/12/24 02:55:06;;;;;;;;;;;16.50;53.80;;;;;;5150720;27;19919;-64
2022/12/24 03:00:15;;;;;;;;;;;16.50;53.80;;;;;;5089934;28;19934;-66
2022/12/24 03:03:06;;;;;;;;;;;16.50;53.90;;;;;;5088495;28;19920;-72
2022/12/24 03:05:48;;;;;;;;;;;16.50;53.90;;;;;;5088550;28;19927;-63
2022/12/24 03:08:18;;;;;;;;;;;16.50;54.00;;;;;;5088714;28;19925;-72
2022/12/24 03:13:26;;;;;;;;;;;16.50;53.90;;;;;;5090126;28;19919;-64
2022/12/24 03:15:52;;;;;;;;;;;16.50;53.90;;;;;;5088500;28;20395;-64
2022/12/24 03:18:19;;;;;;;;;;;16.40;53.90;;;;;;5105774;28;19924;-63
2022/12/24 03:20:51;;;;;;;;;;;16.40;53.90;;;;;;5088563;28;19943;-63
2022/12/24 03:23:16;;;;;;;;;;;16.40;53.90;;;;;;5088633;28;19974;-64
2022/12/24 03:25:43;;;;;;;;;;;16.40;54.00;;;;;;5088948;28;19928;-70
2022/12/24 03:28:10;;;;;;;;;;;16.40;54.00;;;;;;5089581;28;20338;-63
2022/12/24 03:30:38;;;;;;;;;;;16.40;54.00;;;;;;5089646;28;19927;-63
2022/12/24 03:33:04;;;;;;;;;;;16.40;54.00;;;;;;5088271;28;20356;-63
2022/12/24 03:35:29;;;;;;;;;;;16.40;54.00;;;;;;5088144;28;19955;-64
2022/12/24 03:37:55;;;;;;;;;;;16.40;54.00;;;;;;5089456;28;20007;-64
2022/12/24 03:40:21;;;;;;;;;;;16.40;54.00;;;;;;5088019;28;19927;-64
2022/12/24 03:42:46;;;;;;;;;;;16.40;54.00;;;;;;5089389;28;19920;-64
2022/12/24 03:45:12;;;;;;;;;;;16.40;54.00;;;;;;5089240;28;19927;-63
2022/12/24 03:47:37;;;;;;;;;;;16.40;54.00;;;;;;5071511;28;19924;-64
2022/12/24 03:50:03;;;;;;;;;;;16.40;54.00;;;;;;5088204;28;19927;-64
2022/12/24 03:52:29;;;;;;;;;;;16.40;54.00;;;;;;5089131;28;19929;-64
2022/12/24 03:54:54;;;;;;;;;;;16.40;54.00;;;;;;5089168;28;19920;-64
2022/12/24 03:57:20;;;;;;;;;;;16.40;54.00;;;;;;5087820;28;19925;-64
2022/12/24 03:59:45;;;;;;;;;;;16.40;54.10;;;;;;5087606;28;19920;-64
2022/12/24 04:02:11;;;;;;;;;;;16.40;54.10;;;;;;5088960;28;19924;-64
2022/12/24 04:04:36;;;;;;;;;;;16.30;54.00;;;;;;5088919;28;20003;-71
2022/12/24 04:07:03;;;;;;;;;;;16.40;54.10;;;;;;5088920;28;20350;-64
2022/12/24 04:09:28;;;;;;;;;;;16.30;54.00;;;;;;5087563;28;19929;-63
2022/12/24 04:11:54;;;;;;;;;;;16.30;54.10;;;;;;5096398;28;19928;-64
2022/12/24 04:14:19;;;;;;;;;;;16.30;54.00;;;;;;5090331;28;19924;-64
2022/12/24 04:16:45;;;;;;;;;;;16.30;54.00;;;;;;5090889;28;19920;-63
2022/12/24 04:19:10;;;;;;;;;;;16.30;54.10;;;;;;5090795;28;20440;-63
2022/12/24 04:21:36;;;;;;;;;;;16.30;54.10;;;;;;5091045;28;20158;-63
2022/12/24 04:24:01;;;;;;;;;;;16.30;54.10;;;;;;5099451;28;20367;-63
2022/12/24 04:26:27;;;;;;;;;;;16.30;54.10;;;;;;5077491;28;19930;-64
2022/12/24 04:28:52;;;;;;;;;;;16.30;54.10;;;;;;5077392;28;19920;-64
2022/12/24 04:31:18;;;;;;;;;;;16.30;54.10;;;;;;5076839;28;19946;-72
2022/12/24 04:33:44;;;;;;;;;;;16.30;54.10;;;;;;5076996;28;19920;-64
2022/12/24 04:36:11;;;;;;;;;;;16.30;54.10;;;;;;5077342;28;20395;-64
2022/12/24 04:38:37;;;;;;;;;;;16.30;54.10;;;;;;5095186;28;19920;-72
2022/12/24 04:41:04;;;;;;;;;;;16.30;54.10;;;;;;5076917;28;19920;-64
2022/12/24 04:43:30;;;;;;;;;;;16.30;54.10;;;;;;5095062;28;19920;-64
2022/12/24 04:45:55;;;;;;;;;;;16.30;54.10;;;;;;5094835;28;19926;-64
2022/12/24 04:48:21;;;;;;;;;;;16.30;54.10;;;;;;5076956;28;19924;-63
2022/12/24 04:50:46;;;;;;;;;;;16.30;54.20;;;;;;5076708;28;19966;-64
2022/12/24 04:53:13;;;;;;;;;;;16.30;54.10;;;;;;5094909;28;19928;-64
2022/12/24 04:55:46;;;;;;;;;;;16.30;54.20;;;;;;5076635;28;19920;-64
2022/12/24 04:58:12;;;;;;;;;;;16.30;54.20;;;;;;5076446;28;19928;-72
2022/12/24 05:00:37;;;;;;;;;;;16.30;54.20;;;;;;5094560;28;19928;-64
2022/12/24 05:03:03;;;;;;;;;;;16.30;54.20;;;;;;5094750;28;19928;-64
2022/12/24 05:05:28;;;;;;;;;;;16.30;54.20;;;;;;5094524;28;19920;-64
2022/12/24 05:07:54;;;;;;;;;;;16.30;54.20;;;;;;5094476;28;19920;-64
2022/12/24 05:10:19;;;;;;;;;;;16.30;54.20;;;;;;5076343;28;19957;-64
2022/12/24 05:12:45;;;;;;;;;;;16.30;54.20;;;;;;5075981;28;19947;-64
2022/12/24 05:15:10;;;;;;;;;;;16.20;54.20;;;;;;5094697;28;19931;-64
2022/12/24 05:17:36;;;;;;;;;;;16.30;54.20;;;;;;5076151;28;19924;-64
2022/12/24 05:20:01;;;;;;;;;;;16.20;54.20;;;;;;5076465;28;19927;-64
2022/12/24 05:27:58;;;;;;;;;;;16.20;54.20;;;;;;5075766;28;20251;-65
2022/12/24 05:30:23;;;;;;;;;;;16.20;54.20;;;;;;5076034;28;19990;-63
2022/12/24 05:32:49;;;;;;;;;;;16.20;54.20;;;;;;5075777;28;19924;-72
2022/12/24 05:35:14;;;;;;;;;;;16.20;54.20;;;;;;5074882;28;20025;-64
2022/12/24 05:37:40;;;;;;;;;;;16.20;54.20;;;;;;5075686;28;19920;-63
2022/12/24 05:40:06;;;;;;;;;;;16.20;54.20;;;;;;5094002;28;19927;-65
2022/12/24 05:42:31;;;;;;;;;;;16.20;54.20;;;;;;5093728;28;20387;-64
2022/12/24 05:44:57;;;;;;;;;;;16.20;54.30;;;;;;5075550;28;20307;-64
2022/12/24 05:47:22;;;;;;;;;;;16.20;54.20;;;;;;5093754;28;19920;-64
2022/12/24 05:49:48;;;;;;;;;;;16.20;54.30;;;;;;5093622;28;20332;-64
2022/12/24 05:52:13;;;;;;;;;;;16.20;54.30;;;;;;5075566;28;20550;-64
2022/12/24 05:54:39;;;;;;;;;;;16.20;54.20;;;;;;5075337;28;20395;-63
2022/12/24 05:57:04;;;;;;;;;;;16.20;54.20;;;;;;5075668;28;20015;-64
2022/12/24 05:59:30;;;;;;;;;;;16.20;54.30;;;;;;5075131;28;19974;-64
2022/12/24 06:01:55;;;;;;;;;;;16.20;54.30;;;;;;5075187;28;19974;-72
2022/12/24 06:04:21;;;;;;;;;;;16.20;54.30;;;;;;5075133;28;20018;-64
2022/12/24 06:06:46;;;;;;;;;;;16.20;54.30;;;;;;5093368;28;20010;-64
2022/12/24 06:09:12;;;;;;;;;;;16.20;54.30;;;;;;5075347;28;19920;-72
2022/12/24 06:11:37;;;;;;;;;;;16.10;54.30;;;;;;5074642;28;20362;-64
2022/12/24 06:14:03;;;;;;;;;;;16.10;54.30;;;;;;5091772;28;19978;-64
2022/12/24 06:16:28;;;;;;;;;;;16.20;54.40;;;;;;5075092;28;19920;-64
2022/12/24 06:18:54;;;;;;;;;;;16.10;54.40;;;;;;5093397;28;20598;-64
2022/12/24 06:21:20;;;;;;;;;;;16.10;54.30;;;;;;5093289;28;19920;-66
2022/12/24 06:23:45;;;;;;;;;;;16.10;54.40;;;;;;5074831;28;20433;-64
2022/12/24 06:26:12;;;;;;;;;;;16.10;54.40;;;;;;5093048;28;19924;-64
2022/12/24 06:28:38;;;;;;;;;;;16.10;54.40;;;;;;5093079;28;19924;-64
2022/12/24 06:31:04;;;;;;;;;;;16.10;54.40;;;;;;5092845;28;20338;-64
2022/12/24 06:33:30;;;;;;;;;;;16.10;54.50;;;;;;5075105;28;19927;-64
2022/12/24 06:35:59;;;;;;;;;;;16.10;54.40;;;;;;5075096;28;19920;-72
2022/12/24 06:38:24;;;;;;;;;;;16.10;54.40;;;;;;5075056;28;20342;-64
2022/12/24 06:40:50;;;;;;;;;;;16.10;54.40;;;;;;5092232;28;20014;-64
2022/12/24 06:43:16;;;;;;;;;;;16.10;54.40;;;;;;5092703;28;19973;-64
2022/12/24 06:45:45;;;;;;;;;;;16.10;54.40;;;;;;5074383;28;19920;-64
2022/12/24 06:48:11;;;;;;;;;;;16.10;54.40;;;;;;5074819;28;19924;-72
2022/12/24 06:50:36;;;;;;;;;;;16.10;54.40;;;;;;5074743;28;19920;-64
2022/12/24 06:53:02;;;;;;;;;;;16.10;54.50;;;;;;5092680;28;20291;-64
2022/12/24 06:55:28;;;;;;;;;;;16.00;54.40;;;;;;5073816;28;19924;-72
2022/12/24 06:57:53;;;;;;;;;;;16.00;54.40;;;;;;5074539;28;19920;-71
2022/12/24 07:00:20;;;;;;;;;;;16.00;54.40;;;;;;5074598;28;20049;-66
2022/12/24 07:02:46;;;;;;;;;;;16.00;54.40;;;;;;5092574;28;20387;-64
2022/12/24 07:05:12;;;;;;;;;;;16.00;54.50;;;;;;5074710;28;20016;-64
2022/12/24 07:07:39;;;;;;;;;;;16.00;54.50;;;;;;5074386;28;19974;-64
2022/12/24 07:10:05;;;;;;;;;;;16.00;54.40;;;;;;5074708;28;20014;-72
2022/12/24 07:12:31;;;;;;;;;;;16.00;54.40;;;;;;5070712;28;19928;-64
2022/12/24 07:14:56;;;;;;;;;;;16.00;54.40;;;;;;5072061;28;19916;-64
2022/12/24 07:17:22;;;;;;;;;;;16.00;54.40;;;;;;5072168;28;19924;-64
2022/12/24 07:19:47;;;;;;;;;;;16.10;54.50;;;;;;5070963;28;19931;-64
2022/12/24 07:22:13;;;;;;;;;;;16.00;54.50;;;;;;5071423;28;20033;-66
2022/12/24 07:24:38;;;;;;;;;;;16.00;54.50;;;;;;5071129;28;19920;-64
2022/12/24 07:27:04;;;;;;;;;;;16.00;54.50;;;;;;5071977;28;19927;-64
2022/12/24 07:29:29;;;;;;;;;;;16.00;54.50;;;;;;5072102;28;19928;-65
2022/12/24 07:31:55;;;;;;;;;;;16.00;54.50;;;;;;5070480;28;20015;-64
2022/12/24 07:34:20;;;;;;;;;;;16.00;54.50;;;;;;5070670;28;20003;-64
2022/12/24 07:36:46;;;;;;;;;;;16.00;54.50;;;;;;5070506;28;19920;-64
2022/12/24 07:39:11;;;;;;;;;;;16.00;54.50;;;;;;5071808;28;19921;-64
2022/12/24 07:41:37;;;;;;;;;;;16.00;54.60;;;;;;5072146;28;20388;-64
2022/12/24 07:44:03;;;;;;;;;;;16.00;54.50;;;;;;5070660;28;19920;-64
2022/12/24 07:46:28;;;;;;;;;;;15.90;54.50;;;;;;5070732;28;20227;-64
2022/12/24 07:48:54;;;;;;;;;;;15.90;54.50;;;;;;5072474;28;19921;-64
2022/12/24 07:51:19;;;;;;;;;;;16.00;54.60;;;;;;5071871;28;19928;-64
2022/12/24 07:53:46;;;;;;;;;;;16.00;54.60;;;;;;5070198;28;19921;-64
2022/12/24 07:56:13;;;;;;;;;;;16.00;54.60;;;;;;5070735;28;19954;-71
2022/12/24 07:58:39;;;;;;;;;;;16.00;54.60;;;;;;5071601;28;19947;-72
2022/12/24 08:01:04;;;;;;;;;;;15.90;54.60;;;;;;5074525;28;20033;-72
2022/12/24 08:03:30;;;;;;;;;;;15.90;54.60;;;;;;5075363;28;20438;-64
2022/12/24 08:05:57;;;;;;;;;;;15.90;54.60;;;;;;5075631;28;20376;-64
2022/12/24 08:08:23;;;;;;;;;;;15.90;54.60;;;;;;5074350;28;19920;-64
2022/12/24 08:10:48;;;;;;;;;;;15.90;54.60;;;;;;5074049;28;20281;-65
2022/12/24 08:13:14;;;;;;;;;;;15.90;54.60;;;;;;5073605;28;19932;-64
2022/12/24 08:15:40;;;;;;;;;;;15.90;54.60;;;;;;5073707;28;20387;-64
2022/12/24 08:18:05;;;;;;;;;;;15.90;54.60;;;;;;5075152;28;19920;-73
2022/12/24 08:20:31;;;;;;;;;;;15.90;54.60;;;;;;5073858;28;19969;-72
2022/12/24 08:22:56;;;;;;;;;;;15.90;54.60;;;;;;5075080;28;19935;-72
2022/12/24 08:25:22;;;;;;;;;;;15.90;54.60;;;;;;5074974;28;19935;-72
2022/12/24 08:27:47;;;;;;;;;;;15.90;54.60;;;;;;5074010;28;19939;-64
2022/12/24 08:30:13;;;;;;;;;;;15.90;54.60;;;;;;5073706;28;19921;-64
2022/12/24 08:32:39;;;;;;;;;;;15.90;54.70;;;;;;5073741;28;19982;-64
2022/12/24 08:35:04;;;;;;;;;;;15.90;54.70;;;;;;5074559;28;20300;-64
2022/12/24 08:37:30;;;;;;;;;;;15.90;54.70;;;;;;5073385;28;20013;-64
2022/12/24 08:39:55;;;;;;;;;;;15.90;54.70;;;;;;5073502;28;19921;-64
2022/12/24 08:42:21;;;;;;;;;;;15.90;54.70;;;;;;5074847;28;19920;-64
2022/12/24 08:44:47;;;;;;;;;;;15.90;54.80;;;;;;5073547;28;20381;-64
2022/12/24 08:47:12;;;;;;;;;;;15.90;55.50;;;;;;5074673;28;19920;-64
2022/12/24 08:49:38;;;;;;;;;;;15.90;54.80;;;;;;5073060;28;19966;-64
2022/12/24 08:52:04;;;;;;;;;;;15.90;54.80;;;;;;5074793;28;20292;-64
2022/12/24 08:54:29;;;;;;;;;;;16.00;54.80;;;;;;5073195;28;19921;-64
2022/12/24 08:56:55;;;;;;;;;;;15.90;54.80;;;;;;5074426;28;20445;-64
2022/12/24 08:59:21;;;;;;;;;;;15.90;54.80;;;;;;5074178;28;19920;-64
2022/12/24 09:01:46;;;;;;;;;;;15.90;54.90;;;;;;5074372;28;20394;-64
2022/12/24 09:04:12;;;;;;;;;;;15.90;54.80;;;;;;5073237;28;20018;-64
2022/12/24 09:06:37;;;;;;;;;;;15.90;54.90;;;;;;5073461;28;19920;-64
2022/12/24 09:09:04;;;;;;;;;;;15.90;54.90;;;;;;5074205;28;20299;-71
2022/12/24 09:11:30;;;;;;;;;;;15.90;54.90;;;;;;5074073;28;20330;-71
2022/12/24 09:13:55;;;;;;;;;;;15.90;54.90;;;;;;5076072;28;19969;-64
2022/12/24 09:16:21;;;;;;;;;;;15.90;54.90;;;;;;5094174;28;19927;-64
2022/12/24 09:18:46;;;;;;;;;;;15.90;54.90;;;;;;5076144;28;19969;-65
2022/12/24 09:21:14;;;;;;;;;;;15.90;54.90;;;;;;5094161;28;19924;-71
2022/12/24 09:23:40;;;;;;;;;;;15.80;54.90;;;;;;5076344;28;19920;-64
2022/12/24 09:26:07;;;;;;;;;;;15.90;55.00;;;;;;5094098;28;19920;-64
2022/12/24 09:28:33;;;;;;;;;;;15.90;54.90;;;;;;5094479;28;19928;-64
2022/12/24 09:30:59;;;;;;;;;;;15.90;54.90;;;;;;5076125;28;19927;-64
2022/12/24 09:33:26;;;;;;;;;;;15.90;54.90;;;;;;5075824;28;19994;-64
2022/12/24 09:35:52;;;;;;;;;;;15.90;55.00;;;;;;5093811;28;19920;-64
2022/12/24 09:38:18;;;;;;;;;;;15.80;54.90;;;;;;5074820;28;19959;-72
2022/12/24 09:40:43;;;;;;;;;;;15.90;55.00;;;;;;5093848;28;19927;-64
2022/12/24 09:43:18;;;;;;;;;;;15.80;55.00;;;;;;5075759;28;20300;-64
2022/12/24 09:45:59;;;;;;;;;;;15.90;55.00;;;;;;5093796;28;19962;-64
2022/12/24 09:48:28;;;;;;;;;;;15.90;55.00;;;;;;5075567;28;19927;-64
2022/12/24 09:50:55;;;;;;;;;;;15.90;55.00;;;;;;5075813;28;19927;-64
2022/12/24 09:56:03;;;;;;;;;;;15.80;55.10;;;;;;5126759;27;1889123;-63
2022/12/24 09:58:48;;;;;;;;;;;15.90;55.10;;;;;;5174765;27;19919;-64
2022/12/24 10:01:15;;;;;;;;;;;15.80;55.10;;;;;;5174080;27;19934;-63
2022/12/24 10:03:40;;;;;;;;;;;15.80;55.00;;;;;;5174658;27;19925;-71
2022/12/24 10:06:10;;;;;;;;;;;15.90;55.10;;;;;;5193081;27;19919;-64
2022/12/24 10:08:42;;;;;;;;;;;15.80;55.10;;;;;;5174324;27;19919;-63
2022/12/24 10:11:28;;;;;;;;;;;15.80;55.10;;;;;;5174534;27;19993;-64
2022/12/24 10:16:39;;;;;;;;;;;15.80;55.10;;;;;;5131295;27;1867850;-64
2022/12/24 10:19:12;;;;;;;;;;;15.80;55.10;;;;;;5174844;27;19933;-63
2022/12/24 10:21:57;;;;;;;;;;;15.80;55.10;;;;;;5174360;27;19923;-63
2022/12/24 10:27:11;;;;;;;;;;;15.80;55.10;;;;;;5127168;27;1878821;-63
2022/12/24 10:29:39;;;;;;;;;;;15.80;55.10;;;;;;5174557;27;19926;-63
2022/12/24 10:34:52;;;;;;;;;;;15.80;55.90;;;;;;5090000;28;19945;-63
2022/12/24 10:37:22;;;;;;;;;;;15.80;55.10;;;;;;5089887;28;19970;-71
2022/12/24 10:39:48;;;;;;;;;;;15.80;55.20;;;;;;5087976;28;19970;-63
2022/12/24 10:42:14;;;;;;;;;;;15.80;55.20;;;;;;5089750;28;19921;-63
2022/12/24 10:44:39;;;;;;;;;;;15.80;55.20;;;;;;5088525;28;20007;-64
2022/12/24 10:47:06;;;;;;;;;;;15.80;55.20;;;;;;5088682;28;20015;-63
2022/12/24 10:49:39;;;;;;;;;;;15.80;55.20;;;;;;5088633;28;19977;-63
2022/12/24 10:52:09;;;;;;;;;;;15.80;55.20;;;;;;5087758;28;19920;-64
2022/12/24 10:54:38;;;;;;;;;;;15.80;55.20;;;;;;5089458;28;19925;-63
2022/12/24 10:57:04;;;;;;;;;;;15.80;55.30;;;;;;5089465;28;20308;-64
2022/12/24 11:05:26;;;;;;;;;;;15.80;55.20;;;;;;5089953;28;20423;-71
2022/12/24 11:08:11;;;;;;;;;;;15.80;55.30;;;;;;5088592;28;19920;-72
2022/12/24 11:10:39;;;;;;;;;;;15.80;55.30;;;;;;5088711;28;20319;-64
2022/12/24 11:13:17;;;;;;;;;;;15.80;55.30;;;;;;5088436;28;19926;-72
2022/12/24 11:15:43;;;;;;;;;;;15.80;55.30;;;;;;5088811;28;19920;-64
2022/12/24 11:18:13;;;;;;;;;;;15.80;55.30;;;;;;5088437;28;19974;-63
2022/12/24 11:20:39;;;;;;;;;;;15.80;55.30;;;;;;5088542;28;20345;-64
2022/12/24 11:23:04;;;;;;;;;;;15.80;55.30;;;;;;5105384;28;20015;-63
2022/12/24 11:25:31;;;;;;;;;;;15.80;55.30;;;;;;5088207;28;20308;-63
2022/12/24 11:28:17;;;;;;;;;;;15.80;55.30;;;;;;5089550;28;19927;-64
2022/12/24 11:30:53;;;;;;;;;;;15.80;55.30;;;;;;5089294;28;19943;-64
2022/12/24 11:33:20;;;;;;;;;;;15.80;55.30;;;;;;5089358;28;19965;-65
2022/12/24 11:35:47;;;;;;;;;;;15.80;55.40;;;;;;5089523;28;20007;-71
2022/12/24 11:38:18;;;;;;;;;;;15.80;55.40;;;;;;5089446;28;19943;-72
2022/12/24 11:40:44;;;;;;;;;;;15.80;55.40;;;;;;5087933;28;20330;-63
2022/12/24 11:43:14;;;;;;;;;;;15.80;55.40;;;;;;5089157;28;19925;-63
2022/12/24 11:45:46;;;;;;;;;;;15.80;55.50;;;;;;5089179;28;20015;-64
2022/12/24 11:48:28;;;;;;;;;;;15.80;55.50;;;;;;5089102;28;19920;-63
2022/12/24 11:50:55;;;;;;;;;;;15.80;55.60;;;;;;5089014;28;19921;-71
2022/12/24 11:53:24;;;;;;;;;;;15.80;55.50;;;;;;5089051;28;20364;-64
2022/12/24 11:55:51;;;;;;;;;;;15.80;55.50;;;;;;5087686;28;19924;-64
2022/12/24 11:58:20;;;;;;;;;;;15.80;55.50;;;;;;5088012;28;19920;-64
2022/12/24 12:00:46;;;;;;;;;;;15.70;55.50;;;;;;5088777;28;19920;-64
2022/12/24 12:03:22;;;;;;;;;;;15.70;55.50;;;;;;5093409;28;19924;-63
2022/12/24 12:05:48;;;;;;;;;;;15.70;55.50;;;;;;5109168;28;19919;-67
2022/12/24 12:08:16;;;;;;;;;;;15.80;56.00;;;;;;5108127;28;20398;-64
2022/12/24 12:10:42;;;;;;;;;;;15.80;55.60;;;;;;5108933;28;19931;-71
2022/12/24 12:13:26;;;;;;;;;;;15.80;55.50;;;;;;5108952;28;19920;-72
2022/12/24 12:16:11;;;;;;;;;;;15.70;55.50;;;;;;5080527;28;19965;-63
2022/12/24 12:18:38;;;;;;;;;;;15.70;55.50;;;;;;5093929;28;19946;-64
2022/12/24 12:21:08;;;;;;;;;;;15.80;55.50;;;;;;5095237;28;19920;-64
2022/12/24 12:23:36;;;;;;;;;;;15.80;55.50;;;;;;5077133;28;20326;-64
2022/12/24 12:26:11;;;;;;;;;;;15.80;55.60;;;;;;5076941;28;20470;-72
2022/12/24 12:28:44;;;;;;;;;;;15.70;55.50;;;;;;5076976;28;20456;-64
2022/12/24 12:31:14;;;;;;;;;;;15.70;55.50;;;;;;5094051;28;19994;-65
2022/12/24 12:33:46;;;;;;;;;;;15.70;55.50;;;;;;5095110;28;20286;-64
2022/12/24 12:36:14;;;;;;;;;;;15.70;55.50;;;;;;5094852;28;19920;-71
2022/12/24 12:38:40;;;;;;;;;;;15.70;55.50;;;;;;5092937;28;19924;-64
2022/12/24 12:43:55;;;;;;;;;;;15.70;55.50;;;;;;5126642;27;1891639;-64
2022/12/24 12:57:22;;;;;;;;;;;15.80;55.60;;;;;;5089802;28;19919;-63
2022/12/24 12:59:51;;;;;;;;;;;15.80;55.60;;;;;;5088846;28;19920;-63
2022/12/24 13:02:37;;;;;;;;;;;15.70;55.50;;;;;;5088832;28;19920;-64
2022/12/24 13:05:18;;;;;;;;;;;15.70;55.50;;;;;;5089663;28;19920;-63
2022/12/24 13:16:18;;;;;;;;;;;15.80;55.60;;;;;;5109701;27;19934;-64
2022/12/24 13:21:43;;;;;;;;;;;15.80;55.60;;;;;;5110283;27;20375;-64
2022/12/24 13:24:18;;;;;;;;;;;15.70;55.50;;;;;;5109114;28;19920;-64
2022/12/24 13:27:03;;;;;;;;;;;15.70;55.60;;;;;;5108701;28;19919;-64
2022/12/24 13:29:49;;;;;;;;;;;15.70;55.60;;;;;;5108893;28;20015;-64
2022/12/24 13:35:22;;;;;;;;;;;15.70;55.50;;;;;;5109794;27;20387;-64
2022/12/24 13:37:48;;;;;;;;;;;15.60;55.40;;;;;;5108591;28;20387;-64
2022/12/24 13:48:21;;;;;;;;;;;15.70;55.50;;;;;;5110230;27;19940;-64
2022/12/24 13:50:49;;;;;;;;;;;15.60;55.50;;;;;;5143658;27;19915;-64
2022/12/24 13:53:34;;;;;;;;;;;15.70;55.60;;;;;;5108919;28;19923;-64
2022/12/24 13:59:07;;;;;;;;;;;15.70;55.50;;;;;;5135434;27;1866788;-71
2022/12/24 14:01:34;;;;;;;;;;;15.60;55.50;;;;;;5174396;27;20446;-72
2022/12/24 14:04:01;;;;;;;;;;;15.70;55.60;;;;;;5174514;27;19926;-64
2022/12/24 14:06:31;;;;;;;;;;;15.60;55.50;;;;;;5174643;27;19953;-72
2022/12/24 14:09:03;;;;;;;;;;;15.60;55.50;;;;;;5174174;27;19966;-71
2022/12/24 14:11:49;;;;;;;;;;;15.60;55.50;;;;;;5171616;27;19919;-64
2022/12/24 14:14:34;;;;;;;;;;;15.60;55.50;;;;;;5171464;27;19938;-72
2022/12/24 14:17:01;;;;;;;;;;;15.60;55.50;;;;;;5153484;27;19972;-64
2022/12/24 14:19:29;;;;;;;;;;;15.70;55.60;;;;;;5152938;27;19915;-64
2022/12/24 14:24:40;;;;;;;;;;;15.60;55.50;;;;;;5110294;27;19927;-64
2022/12/24 14:27:12;;;;;;;;;;;15.60;55.50;;;;;;5110503;28;19926;-64
2022/12/24 14:29:58;;;;;;;;;;;15.60;55.50;;;;;;5110018;28;19961;-64
2022/12/24 14:32:23;;;;;;;;;;;15.60;56.30;;;;;;5109042;28;20146;-64
2022/12/24 14:35:09;;;;;;;;;;;15.60;55.50;;;;;;5108633;28;20211;-64
2022/12/24 14:37:34;;;;;;;;;;;15.60;55.50;;;;;;5108706;28;19931;-64
2022/12/24 14:40:00;;;;;;;;;;;15.60;55.50;;;;;;5108550;28;19916;-64
2022/12/24 14:47:51;;;;;;;;;;;15.60;55.60;;;;;;5127347;27;1871866;-64
2022/12/24 14:50:30;;;;;;;;;;;15.60;55.50;;;;;;5174357;27;20361;-64
2022/12/24 14:55:39;;;;;;;;;;;15.60;55.50;;;;;;5129194;27;1869399;-67
2022/12/24 14:58:25;;;;;;;;;;;15.60;55.50;;;;;;5174604;27;19939;-65
2022/12/24 15:00:51;;;;;;;;;;;15.60;56.30;;;;;;5174380;27;19969;-64
2022/12/24 15:03:18;;;;;;;;;;;15.60;55.60;;;;;;5174284;27;19914;-64
2022/12/24 15:05:44;;;;;;;;;;;15.60;55.60;;;;;;5174567;27;19921;-64
2022/12/24 15:08:14;;;;;;;;;;;15.50;55.60;;;;;;5174332;27;19921;-64
2022/12/24 15:10:41;;;;;;;;;;;15.50;55.50;;;;;;5174177;27;19922;-63
2022/12/24 15:15:50;;;;;;;;;;;15.50;55.60;;;;;;5110181;27;19918;-64
2022/12/24 15:18:17;;;;;;;;;;;15.50;55.50;;;;;;5108828;28;19920;-64
2022/12/24 15:20:45;;;;;;;;;;;15.50;55.50;;;;;;5109263;28;19945;-72
2022/12/24 15:23:28;;;;;;;;;;;15.50;55.60;;;;;;5108805;28;19920;-64
2022/12/24 15:26:14;;;;;;;;;;;15.50;55.60;;;;;;5109193;28;19926;-64
2022/12/24 15:28:40;;;;;;;;;;;15.50;55.60;;;;;;5108601;28;19949;-72
2022/12/24 15:31:07;;;;;;;;;;;15.50;55.60;;;;;;5109048;28;19920;-72
2022/12/24 15:33:34;;;;;;;;;;;15.50;55.60;;;;;;5108578;28;20356;-64
2022/12/24 15:36:00;;;;;;;;;;;15.50;55.60;;;;;;5108596;28;19976;-64
2022/12/24 15:38:36;;;;;;;;;;;15.50;55.60;;;;;;5108553;28;19924;-72
2022/12/24 15:41:03;;;;;;;;;;;15.60;55.70;;;;;;5108766;28;19968;-64
2022/12/24 15:43:29;;;;;;;;;;;15.40;55.60;;;;;;5108519;28;19920;-73
2022/12/24 15:45:55;;;;;;;;;;;15.50;55.70;;;;;;5108779;28;20009;-72
2022/12/24 15:48:23;;;;;;;;;;;15.50;55.60;;;;;;5109638;28;19945;-64
2022/12/24 15:50:50;;;;;;;;;;;15.50;55.60;;;;;;5109825;28;19920;-64
2022/12/24 15:53:18;;;;;;;;;;;15.50;55.60;;;;;;5109619;28;20294;-64
2022/12/24 15:55:45;;;;;;;;;;;15.50;55.70;;;;;;5108218;28;20018;-70
2022/12/24 16:01:14;;;;;;;;;;;15.50;55.70;;;;;;5089986;28;19934;-64
2022/12/24 16:03:52;;;;;;;;;;;15.50;55.70;;;;;;5088658;28;20414;-64
2022/12/24 16:06:18;;;;;;;;;;;15.40;55.60;;;;;;5089817;28;20437;-70